Time;durP1;ratioP1;P1;durP2;ratioP2;P2;SDS_P1;SDS_P2;PMS_P1;PMS_P2;Temp;Humidity;BMP_temperature;BMP_pressure;BME280_temperature;BME280_humidity;BME280_pressure;Samples;Min_cycle;Max_cycle;Signal;HPM_P1;HPM_P2
2021/01/26 00:02:08;;;;;;;34.40;26.83;;;;;;;2.10;69.44;100669.66;6093008;29;20673;-61
2021/01/26 00:05:29;;;;;;;33.03;27.97;;;;;;;2.03;69.55;100676.34;6089328;28;20237;-61
2021/01/26 00:08:49;;;;;;;30.53;27.10;;;;;;;1.96;69.67;100679.63;6096442;29;20240;-62
2021/01/26 00:12:11;;;;;;;31.60;26.00;;;;;;;1.97;69.91;100681.34;6097054;29;20236;-61
2021/01/26 00:15:32;;;;;;;33.40;29.13;;;;;;;1.97;68.97;100684.78;6091955;29;20618;-63
2021/01/26 00:18:52;;;;;;;33.17;27.90;;;;;;;1.64;69.77;100679.69;6105462;28;20232;-61
2021/01/26 00:22:13;;;;;;;32.37;28.27;;;;;;;1.97;69.35;100681.34;6118223;28;20228;-62
2021/01/26 00:25:35;;;;;;;33.47;26.77;;;;;;;2.12;68.96;100691.97;6096632;29;20244;-61
2021/01/26 00:28:56;;;;;;;28.87;25.80;;;;;;;1.69;70.06;100682.38;6086090;29;20240;-61
2021/01/26 00:32:17;;;;;;;28.63;24.60;;;;;;;1.95;69.41;100690.72;6098497;29;20236;-61
2021/01/26 00:35:38;;;;;;;33.43;28.10;;;;;;;2.01;68.64;100690.84;6087714;28;20540;-61
2021/01/26 00:38:58;;;;;;;32.93;27.80;;;;;;;1.92;68.82;100690.63;6103240;28;20598;-60
2021/01/26 00:42:19;;;;;;;32.80;29.27;;;;;;;1.46;70.72;100690.38;6098548;29;20240;-61
2021/01/26 00:45:41;;;;;;;34.83;28.63;;;;;;;1.41;70.70;100693.63;6114885;29;20780;-61
2021/01/26 00:49:01;;;;;;;36.00;28.63;;;;;;;1.48;70.54;100690.41;6096191;29;20241;-61
2021/01/26 00:52:22;;;;;;;36.20;28.70;;;;;;;1.50;70.53;100694.75;6097565;28;20323;-62
2021/01/26 00:55:43;;;;;;;37.27;30.80;;;;;;;1.22;71.44;100699.97;6104982;29;20248;-61
2021/01/26 00:59:05;;;;;;;39.00;29.93;;;;;;;1.49;70.17;100699.84;6093969;29;20236;-61
2021/01/26 01:02:26;;;;;;;34.17;29.87;;;;;;;1.63;70.15;100706.19;6110565;29;20240;-62
2021/01/26 01:05:46;;;;;;;31.73;26.93;;;;;;;1.84;69.75;100705.88;6089836;29;20320;-61
2021/01/26 01:09:07;;;;;;;31.53;27.87;;;;;;;1.90;69.11;100705.13;6096847;28;20236;-61
2021/01/26 01:12:27;;;;;;;33.93;28.97;;;;;;;1.99;68.56;100704.50;6084722;29;20236;-62
2021/01/26 01:15:47;;;;;;;32.40;27.87;;;;;;;1.95;68.70;100706.97;6098221;29;20235;-62
2021/01/26 01:19:09;;;;;;;35.87;30.10;;;;;;;1.69;68.55;100701.22;6095744;28;21723;-62
2021/01/26 01:22:29;;;;;;;35.37;30.37;;;;;;;0.98;71.44;100703.59;6093286;29;20236;-62
2021/01/26 01:25:58;;;;;;;34.73;30.97;;;;;;;1.08;71.93;100703.03;6098065;28;20248;-61
2021/01/26 01:29:18;;;;;;;32.87;27.33;;;;;;;1.37;70.76;100702.94;6077753;29;20315;-62
2021/01/26 01:32:38;;;;;;;37.77;31.33;;;;;;;1.27;70.73;100704.41;6074575;29;21028;-61
2021/01/26 01:36:00;;;;;;;39.87;33.07;;;;;;;1.27;70.55;100709.53;6081109;29;21706;-60
2021/01/26 01:39:21;;;;;;;37.97;31.47;;;;;;;1.01;71.72;100706.25;6083467;29;21777;-61
2021/01/26 01:42:41;;;;;;;38.53;30.47;;;;;;;1.23;70.79;100711.97;6078521;29;20324;-61
2021/01/26 01:46:06;;;;;;;36.87;31.23;;;;;;;1.37;70.50;100703.81;6083622;29;20251;-61
2021/01/26 01:49:34;;;;;;;36.03;29.70;;;;;;;1.53;69.32;100701.63;6098907;29;20354;-61
2021/01/26 01:53:02;;;;;;;35.70;29.53;;;;;;;1.70;69.21;100709.78;6107599;28;20232;-62
2021/01/26 01:56:29;;;;;;;33.60;29.27;;;;;;;1.37;70.05;100708.94;6090756;28;20673;-61
2021/01/26 01:59:56;;;;;;;34.80;28.57;;;;;;;1.33;69.59;100704.56;6094623;29;20657;-60
2021/01/26 02:03:22;;;;;;;42.80;30.67;;;;;;;1.43;69.36;100712.50;6104433;29;20613;-61
2021/01/26 02:06:47;;;;;;;36.93;31.03;;;;;;;1.08;70.52;100712.41;6090452;29;20236;-61
2021/01/26 02:10:10;;;;;;;42.33;33.37;;;;;;;0.92;71.49;100716.25;6095549;29;20237;-61
2021/01/26 02:13:31;;;;;;;35.33;30.63;;;;;;;1.09;71.07;100721.88;6093413;29;20228;-61
2021/01/26 02:17:02;;;;;;;41.13;33.87;;;;;;;1.07;71.00;100718.41;6091240;29;20327;-61
2021/01/26 02:21:05;;;;;;;34.67;30.37;;;;;;;1.28;69.97;100721.53;6090226;28;20311;-62
2021/01/26 02:25:19;;;;;;;37.20;30.50;;;;;;;1.56;68.96;100725.69;6086740;29;20323;-61
2021/01/26 02:28:52;;;;;;;32.43;28.30;;;;;;;1.71;68.35;100730.38;6027522;29;20236;-61
2021/01/26 02:32:23;;;;;;;39.37;31.37;;;;;;;1.75;67.83;100732.19;6101799;28;20252;-61
2021/01/26 02:36:18;;;;;;;36.13;28.23;;;;;;;1.78;68.06;100733.94;6091956;29;20240;-62
2021/01/26 02:39:54;;;;;;;37.13;31.20;;;;;;;1.45;69.28;100739.06;6094562;28;20318;-60
2021/01/26 02:43:32;;;;;;;33.13;29.60;;;;;;;1.50;69.21;100742.66;6091316;29;20928;-62
2021/01/26 02:47:05;;;;;;;37.33;30.93;;;;;;;1.67;69.14;100741.38;6105276;29;20240;-60
2021/01/26 02:50:32;;;;;;;36.97;29.20;;;;;;;1.89;67.94;100749.63;6096203;29;20236;-62
2021/01/26 02:54:06;;;;;;;34.67;28.07;;;;;;;2.06;67.82;100743.22;6088899;29;20244;-62
2021/01/26 02:57:33;;;;;;;32.97;27.80;;;;;;;2.29;67.17;100753.19;6096469;29;20232;-60
2021/01/26 03:00:58;;;;;;;33.53;29.03;;;;;;;2.32;66.90;100754.09;6091315;29;20236;-61
2021/01/26 03:04:25;;;;;;;33.47;29.43;;;;;;;2.36;66.52;100752.47;6088912;29;20540;-62
2021/01/26 03:07:52;;;;;;;33.47;29.90;;;;;;;2.11;66.80;100759.63;6091911;29;20236;-61
2021/01/26 03:11:19;;;;;;;35.43;31.63;;;;;;;1.83;68.21;100754.63;6089166;29;20228;-62
2021/01/26 03:14:44;;;;;;;32.97;28.03;;;;;;;2.11;67.60;100774.16;6097457;29;20315;-62
2021/01/26 03:18:07;;;;;;;35.63;30.33;;;;;;;1.71;67.95;100770.59;6102831;29;20315;-62
2021/01/26 03:21:29;;;;;;;41.27;32.00;;;;;;;1.45;69.19;100767.31;6083529;28;20233;-61
2021/01/26 03:24:53;;;;;;;40.27;30.83;;;;;;;1.75;68.83;100765.56;6104772;28;20241;-62
2021/01/26 03:28:15;;;;;;;32.53;27.70;;;;;;;2.31;67.19;100782.38;6090288;28;20599;-62
2021/01/26 03:31:49;;;;;;;32.20;28.70;;;;;;;2.47;66.50;100776.75;6097128;29;20244;-61
2021/01/26 03:35:12;;;;;;;33.60;27.73;;;;;;;2.72;65.95;100777.31;6106773;28;20657;-62
2021/01/26 03:38:34;;;;;;;35.53;29.07;;;;;;;2.73;65.94;100786.75;6086605;28;20224;-61
2021/01/26 03:41:54;;;;;;;30.23;26.43;;;;;;;2.67;65.17;100792.63;6099641;29;20236;-61
2021/01/26 03:45:15;;;;;;;39.87;28.40;;;;;;;2.85;64.98;100787.03;6096763;29;20251;-62
2021/01/26 03:48:53;;;;;;;32.63;26.73;;;;;;;2.91;65.23;100792.31;6095740;29;20232;-61
2021/01/26 03:52:27;;;;;;;33.37;28.97;;;;;;;2.90;64.63;100785.41;6084524;29;20510;-61
2021/01/26 03:56:00;;;;;;;37.23;29.73;;;;;;;2.90;65.94;100785.41;6085976;29;20236;-61
2021/01/26 03:59:28;;;;;;;135.20;105.03;;;;;;;3.01;65.82;100797.66;6099467;29;20606;-61
2021/01/26 04:03:01;;;;;;;69.83;55.50;;;;;;;2.96;64.83;100790.69;6094249;29;20229;-61
2021/01/26 04:06:28;;;;;;;80.47;64.07;;;;;;;2.91;64.94;100787.16;6091905;29;20232;-60
2021/01/26 04:09:57;;;;;;;74.90;58.63;;;;;;;2.66;66.09;100800.31;6100793;29;20240;-61
2021/01/26 04:13:23;;;;;;;144.23;111.37;;;;;;;2.78;66.29;100797.16;6104377;28;20582;-61
2021/01/26 04:16:50;;;;;;;63.73;51.87;;;;;;;2.72;66.45;100809.03;6097853;29;20236;-61
2021/01/26 04:20:14;;;;;;;36.63;32.10;;;;;;;3.05;64.69;100807.19;6083558;29;20245;-61
2021/01/26 04:23:35;;;;;;;35.27;30.07;;;;;;;3.08;66.71;100810.69;6096307;29;20240;-62
2021/01/26 04:26:56;;;;;;;58.87;50.93;;;;;;;3.13;65.64;100819.34;6089141;29;20720;-59
2021/01/26 04:30:17;;;;;;;57.03;46.07;;;;;;;3.18;65.33;100816.91;6098280;29;20232;-61
2021/01/26 04:33:38;;;;;;;69.60;57.63;;;;;;;3.08;65.95;100822.66;6103019;28;20318;-61
2021/01/26 04:36:59;;;;;;;55.03;48.40;;;;;;;3.05;65.35;100812.31;6112103;29;20229;-62
2021/01/26 04:40:21;;;;;;;36.37;30.90;;;;;;;3.06;65.06;100814.03;6104013;28;20453;-61
2021/01/26 04:43:49;;;;;;;33.10;29.53;;;;;;;3.13;64.54;100813.34;6098444;29;20658;-61
2021/01/26 04:47:19;;;;;;;33.77;30.23;;;;;;;3.22;64.84;100818.69;6097299;29;20232;-61
2021/01/26 04:50:50;;;;;;;36.43;31.20;;;;;;;3.39;64.55;100829.31;6087649;28;20259;-61
2021/01/26 04:54:33;;;;;;;33.97;29.47;;;;;;;3.46;64.75;100827.75;6099267;29;20681;-61
2021/01/26 04:58:13;;;;;;;33.77;30.10;;;;;;;3.49;64.00;100839.00;6088539;29;20244;-61
2021/01/26 05:02:09;;;;;;;32.63;28.33;;;;;;;3.43;64.04;100844.03;6097887;28;20240;-61
2021/01/26 05:05:34;;;;;;;36.63;30.53;;;;;;;3.28;64.76;100843.69;6089940;28;20244;-61
2021/01/26 05:08:55;;;;;;;33.70;28.40;;;;;;;3.31;64.20;100844.59;6081144;28;20236;-62
2021/01/26 05:12:19;;;;;;;36.13;28.47;;;;;;;3.14;65.38;100845.94;6104270;28;20339;-60
2021/01/26 05:15:44;;;;;;;32.83;29.27;;;;;;;2.99;65.49;100850.78;6100405;28;20233;-60
2021/01/26 05:19:12;;;;;;;32.50;29.03;;;;;;;3.08;65.17;100861.25;6096529;29;20232;-61
2021/01/26 05:22:39;;;;;;;36.97;29.87;;;;;;;3.11;64.73;100859.63;6095290;29;20240;-61
2021/01/26 05:25:59;;;;;;;35.57;29.33;;;;;;;3.01;65.11;100859.41;6102968;28;20236;-61
2021/01/26 05:29:20;;;;;;;36.47;30.47;;;;;;;2.91;65.46;100859.19;6094189;29;20232;-61
2021/01/26 05:32:44;;;;;;;35.57;28.03;;;;;;;2.87;64.94;100861.63;6095302;29;20268;-62
2021/01/26 05:36:05;;;;;;;32.10;28.67;;;;;;;2.76;66.12;100864.84;6106038;28;20239;-61
2021/01/26 05:39:31;;;;;;;37.87;29.57;;;;;;;2.69;66.06;100870.66;6106764;28;20255;-61
2021/01/26 05:42:55;;;;;;;34.83;29.37;;;;;;;2.58;66.39;100869.56;6096513;28;20260;-62
2021/01/26 05:46:39;;;;;;;35.13;31.07;;;;;;;2.52;66.52;100879.66;6094620;29;20236;-62
2021/01/26 05:50:04;;;;;;;34.23;29.87;;;;;;;2.45;66.89;100886.38;6097054;29;20331;-61
2021/01/26 05:53:30;;;;;;;36.30;29.40;;;;;;;2.48;66.23;100888.13;6097520;29;20236;-61
2021/01/26 05:56:53;;;;;;;33.97;30.37;;;;;;;2.34;67.33;100898.06;6089112;29;20625;-60
2021/01/26 06:00:19;;;;;;;34.07;29.10;;;;;;;2.29;67.64;100899.69;6093666;29;20323;-62
2021/01/26 06:03:39;;;;;;;41.03;31.63;;;;;;;2.13;68.42;100906.09;6095531;29;20228;-61
2021/01/26 06:07:02;;;;;;;37.50;31.10;;;;;;;2.27;67.77;100914.16;6081974;29;20516;-61
2021/01/26 06:10:23;;;;;;;38.13;33.20;;;;;;;2.25;67.89;100920.97;6090683;29;20245;-62
2021/01/26 06:13:43;;;;;;;41.07;34.17;;;;;;;2.27;67.21;100916.72;6096008;29;20232;-62
2021/01/26 06:17:06;;;;;;;35.30;30.33;;;;;;;2.22;67.24;100926.03;6091844;29;20532;-62
2021/01/26 06:20:26;;;;;;;38.43;34.17;;;;;;;2.16;67.72;100926.75;6094373;29;20228;-61
2021/01/26 06:23:47;;;;;;;36.93;33.03;;;;;;;2.09;68.11;100923.13;6096986;29;20233;-61
2021/01/26 06:27:26;;;;;;;38.97;32.50;;;;;;;1.83;69.50;100924.13;6093046;29;20260;-62
2021/01/26 06:30:53;;;;;;;47.27;35.67;;;;;;;1.73;69.46;100926.41;6089790;29;20510;-61
2021/01/26 06:34:33;;;;;;;42.47;34.83;;;;;;;1.63;69.68;100924.41;6093087;29;20291;-61
2021/01/26 06:38:33;;;;;;;45.60;35.83;;;;;;;1.64;69.80;100931.28;6094474;29;20307;-61
2021/01/26 06:42:04;;;;;;;39.07;31.63;;;;;;;1.85;69.32;100925.88;6080465;29;20583;-61
2021/01/26 06:45:37;;;;;;;46.10;33.73;;;;;;;1.77;69.15;100929.94;6087725;29;20401;-63
2021/01/26 06:49:14;;;;;;;43.33;36.47;;;;;;;1.81;70.08;100933.47;6086192;29;20248;-62
2021/01/26 06:52:49;;;;;;;41.67;34.77;;;;;;;1.81;69.45;100946.31;6094494;29;20518;-62
2021/01/26 06:56:26;;;;;;;40.27;34.50;;;;;;;1.54;69.59;100954.94;6083603;29;20229;-61
2021/01/26 07:00:12;;;;;;;49.90;36.50;;;;;;;1.79;69.19;100963.38;6093356;29;20234;-61
2021/01/26 07:04:16;;;;;;;40.17;33.07;;;;;;;1.59;70.19;100973.94;6095843;29;20232;-62
2021/01/26 07:08:10;;;;;;;43.97;34.67;;;;;;;1.89;68.78;100984.22;6061173;28;20318;-62
2021/01/26 07:12:21;;;;;;;42.80;35.70;;;;;;;1.94;68.46;100989.50;6091035;29;20236;-62
2021/01/26 07:16:14;;;;;;;42.43;33.67;;;;;;;1.99;68.65;100999.91;6092148;29;20236;-63
2021/01/26 07:19:55;;;;;;;42.13;34.20;;;;;;;2.03;68.17;101007.72;6062501;29;20652;-62
2021/01/26 07:23:37;;;;;;;44.90;34.83;;;;;;;1.97;68.50;101022.97;6092921;29;20240;-61
2021/01/26 07:27:22;;;;;;;45.40;34.80;;;;;;;2.00;68.10;101017.03;6092723;29;20237;-61
2021/01/26 07:30:47;;;;;;;39.60;32.27;;;;;;;2.12;68.04;101018.28;6067903;29;20555;-61
2021/01/26 07:34:17;;;;;;;40.90;33.93;;;;;;;2.18;68.06;101022.72;6093215;29;20236;-62
2021/01/26 07:37:44;;;;;;;39.20;33.33;;;;;;;2.32;67.55;101030.81;6094049;29;20768;-62
2021/01/26 07:41:09;;;;;;;39.77;33.87;;;;;;;2.32;67.76;101034.25;6095084;29;20324;-61
2021/01/26 07:44:39;;;;;;;41.43;34.80;;;;;;;2.51;67.74;101040.78;6085010;28;20256;-61
2021/01/26 07:48:06;;;;;;;39.13;32.67;;;;;;;2.72;66.76;101035.34;6096814;29;20240;-62
2021/01/26 07:51:31;;;;;;;41.30;34.57;;;;;;;2.80;67.29;101032.97;6089684;29;20224;-61
2021/01/26 07:55:01;;;;;;;36.20;31.77;;;;;;;2.92;66.43;101035.84;6090104;29;20555;-62
2021/01/26 07:58:21;;;;;;;37.57;30.30;;;;;;;2.99;66.51;101038.59;6096572;29;20232;-61
2021/01/26 08:01:46;;;;;;;38.33;31.90;;;;;;;2.99;66.77;101043.75;6093662;29;20706;-64
2021/01/26 08:05:11;;;;;;;40.03;32.17;;;;;;;3.14;66.28;101047.56;6094676;29;20240;-62
2021/01/26 08:08:36;;;;;;;41.50;34.80;;;;;;;2.65;67.43;101053.13;6099587;29;20236;-61
2021/01/26 08:12:01;;;;;;;41.10;34.10;;;;;;;2.55;68.33;101063.16;6089227;29;20236;-61
2021/01/26 08:15:29;;;;;;;39.33;32.47;;;;;;;3.03;67.01;101061.00;6096477;28;20234;-62
2021/01/26 08:18:50;;;;;;;39.17;32.10;;;;;;;3.20;66.03;101062.31;6091869;29;20244;-62
2021/01/26 08:22:17;;;;;;;38.97;32.93;;;;;;;3.19;66.03;101069.97;6087828;29;20236;-61
2021/01/26 08:25:41;;;;;;;38.10;32.23;;;;;;;3.24;65.37;101082.13;6090128;28;20245;-62
2021/01/26 08:29:01;;;;;;;41.13;31.90;;;;;;;3.29;66.31;101080.53;6084148;29;20244;-62
2021/01/26 08:32:43;;;;;;;42.27;32.67;;;;;;;2.99;67.16;101088.34;6078293;29;20545;-61
2021/01/26 08:36:26;;;;;;;40.03;32.50;;;;;;;2.91;67.00;101090.72;6082453;29;20240;-62
2021/01/26 08:39:49;;;;;;;39.10;33.10;;;;;;;5.85;61.19;101082.97;6074544;29;20245;-61
2021/01/26 08:43:11;;;;;;;37.60;32.10;;;;;;;8.73;51.75;101082.94;6075349;29;20787;-63
2021/01/26 08:46:37;;;;;;;33.50;29.97;;;;;;;10.90;45.80;101073.06;6078744;29;20234;-62
2021/01/26 08:50:10;;;;;;;31.73;27.77;;;;;;;12.97;39.54;101077.03;6080696;29;20236;-62
2021/01/26 08:53:35;;;;;;;30.87;27.63;;;;;;;13.46;38.71;101083.25;6082543;29;20232;-63
2021/01/26 08:56:55;;;;;;;28.03;25.13;;;;;;;13.07;37.44;101089.06;6083527;29;20237;-62
2021/01/26 09:00:38;;;;;;;27.50;23.93;;;;;;;13.79;38.04;101097.50;6081769;29;20237;-63
2021/01/26 09:04:39;;;;;;;30.17;26.43;;;;;;;11.70;40.15;101103.72;6077849;29;20268;-62
2021/01/26 09:08:05;;;;;;;28.33;25.27;;;;;;;9.45;46.38;101112.50;6081195;29;20614;-61
2021/01/26 09:11:40;;;;;;;28.97;25.63;;;;;;;8.83;47.80;101127.13;6077848;29;20359;-62
2021/01/26 09:15:02;;;;;;;30.13;26.93;;;;;;;7.64;50.55;101128.16;6081400;29;20229;-61
2021/01/26 09:18:25;;;;;;;28.93;25.47;;;;;;;8.00;50.98;101131.88;6082397;29;20236;-62
2021/01/26 09:21:46;;;;;;;31.10;26.97;;;;;;;7.33;52.46;101142.59;6084167;29;20248;-61
2021/01/26 09:25:15;;;;;;;34.83;31.23;;;;;;;6.50;55.00;101137.34;6085155;29;20324;-62
2021/01/26 09:28:40;;;;;;;33.07;29.43;;;;;;;5.84;56.86;101138.97;6096319;29;20251;-61
2021/01/26 09:32:04;;;;;;;32.27;28.33;;;;;;;5.42;59.08;101149.47;6082276;29;20232;-61
2021/01/26 09:35:31;;;;;;;34.23;30.53;;;;;;;5.66;58.89;101147.31;6076361;29;20519;-61
2021/01/26 09:38:51;;;;;;;30.00;26.87;;;;;;;5.46;59.32;101154.69;6078279;29;20228;-62
2021/01/26 09:42:17;;;;;;;36.50;30.20;;;;;;;5.26;60.24;101167.28;6074490;28;20233;-67
2021/01/26 09:45:39;;;;;;;32.80;29.40;;;;;;;4.77;61.77;101179.25;6067816;29;20241;-61
2021/01/26 09:49:11;;;;;;;34.27;28.47;;;;;;;5.02;61.23;101174.56;6064924;29;20264;-62
2021/01/26 09:52:33;;;;;;;33.23;28.30;;;;;;;5.06;61.18;101171.19;6076877;29;20244;-62
2021/01/26 09:55:54;;;;;;;29.67;26.40;;;;;;;4.92;61.65;101176.97;6081636;29;20236;-64
2021/01/26 09:59:16;;;;;;;34.50;27.27;;;;;;;5.15;60.95;101166.19;6077868;29;20229;-61
2021/01/26 10:02:37;;;;;;;32.57;26.93;;;;;;;5.15;61.08;101171.38;6080373;29;20361;-62
2021/01/26 10:05:59;;;;;;;31.67;28.10;;;;;;;5.63;60.00;101160.16;6081461;29;20609;-63
2021/01/26 10:09:26;;;;;;;29.10;25.60;;;;;;;6.05;58.62;101153.97;6077353;29;20241;-63
2021/01/26 10:12:46;;;;;;;28.83;25.30;;;;;;;5.96;58.60;101164.16;6076445;29;20245;-63
2021/01/26 10:16:34;;;;;;;30.47;27.20;;;;;;;5.33;60.46;101176.00;6077139;29;22094;-62
2021/01/26 10:19:57;;;;;;;29.83;26.60;;;;;;;6.93;55.31;101178.41;6076763;29;20241;-63
2021/01/26 10:23:24;;;;;;;27.57;24.33;;;;;;;6.29;57.70;101181.91;6081619;29;20237;-61
2021/01/26 10:26:45;;;;;;;27.67;24.83;;;;;;;7.64;54.96;101182.59;6076657;29;20240;-63
2021/01/26 10:30:13;;;;;;;26.60;23.77;;;;;;;10.98;45.42;101172.03;6075611;29;20721;-63
2021/01/26 10:33:36;;;;;;;22.30;19.90;;;;;;;14.36;37.92;101162.81;6076977;29;20319;-64
2021/01/26 10:37:09;;;;;;;21.10;18.93;;;;;;;17.84;30.88;101168.66;6062917;29;20232;-62
2021/01/26 10:40:32;;;;;;;20.57;18.47;;;;;;;15.76;34.92;101177.28;6082031;29;20259;-62
2021/01/26 10:44:02;;;;;;;18.83;16.27;;;;;;;17.19;32.34;101170.69;6082120;29;20240;-64
2021/01/26 10:47:28;;;;;;;17.43;15.60;;;;;;;17.69;30.74;101162.09;6076976;29;20232;-63
2021/01/26 10:50:49;;;;;;;18.48;16.42;;;;;;;18.31;29.13;101166.13;6085799;29;20263;-63
2021/01/26 10:54:10;;;;;;;17.33;15.63;;;;;;;17.03;30.55;101180.81;6084047;29;20328;-64
2021/01/26 10:57:31;;;;;;;16.95;15.18;;;;;;;18.30;29.24;101172.34;6084207;29;20233;-62
2021/01/26 11:00:53;;;;;;;16.67;15.07;;;;;;;20.70;26.25;101167.09;6100659;29;20235;-64
2021/01/26 11:04:14;;;;;;;17.23;15.30;;;;;;;19.76;26.74;101164.09;6078038;29;20244;-63
2021/01/26 11:07:35;;;;;;;17.08;15.57;;;;;;;18.79;27.72;101167.03;6092592;29;20440;-64
2021/01/26 11:10:56;;;;;;;16.30;14.90;;;;;;;18.93;27.61;101170.03;6084665;29;20764;-63
2021/01/26 11:14:16;;;;;;;17.65;15.32;;;;;;;19.36;26.83;101178.91;6088405;29;20443;-64
2021/01/26 11:17:37;;;;;;;15.95;14.45;;;;;;;19.69;27.26;101181.09;6084113;29;20262;-65
2021/01/26 11:21:00;;;;;;;16.63;15.18;;;;;;;18.72;28.02;101184.00;6091730;29;20240;-64
2021/01/26 11:24:20;;;;;;;19.40;17.60;;;;;;;18.20;28.69;101192.00;6095560;29;20240;-64
2021/01/26 11:27:41;;;;;;;17.83;16.23;;;;;;;17.17;30.31;101192.69;6084565;29;20240;-63
2021/01/26 11:31:01;;;;;;;16.40;14.85;;;;;;;14.26;36.06;101197.91;6087503;29;20488;-64
2021/01/26 11:34:23;;;;;;;16.75;15.25;;;;;;;15.23;33.96;101197.75;6096639;29;20240;-62
2021/01/26 11:37:44;;;;;;;15.98;14.57;;;;;;;18.35;28.58;101204.66;6098487;29;20244;-64
2021/01/26 11:41:05;;;;;;;15.43;14.02;;;;;;;19.97;26.55;101195.84;6100245;29;20699;-63
2021/01/26 11:44:25;;;;;;;16.67;15.07;;;;;;;20.62;25.47;101192.13;6097192;29;20425;-62
2021/01/26 11:47:46;;;;;;;16.80;15.27;;;;;;;17.26;29.56;101213.50;6091519;29;20315;-64
2021/01/26 11:51:07;;;;;;;17.98;16.05;;;;;;;14.17;35.73;101225.13;6092406;29;20244;-63
2021/01/26 11:54:28;;;;;;;18.07;16.27;;;;;;;11.30;42.77;101221.41;6100738;29;20255;-63
2021/01/26 11:57:49;;;;;;;15.10;13.63;;;;;;;9.54;47.07;101227.75;6097382;29;20228;-63
2021/01/26 12:01:09;;;;;;;12.87;11.57;;;;;;;9.20;48.50;101219.88;6097794;29;20237;-64
2021/01/26 12:04:30;;;;;;;12.93;10.70;;;;;;;8.90;49.65;101215.44;6089216;29;20240;-63
2021/01/26 12:07:51;;;;;;;14.20;12.07;;;;;;;9.62;48.13;101219.09;6099421;29;20240;-63
2021/01/26 12:11:11;;;;;;;12.80;11.53;;;;;;;9.06;49.15;101217.25;6086661;29;22121;-63
2021/01/26 12:14:32;;;;;;;11.73;10.33;;;;;;;9.17;49.04;101220.75;6091192;29;20232;-63
2021/01/26 12:17:53;;;;;;;13.90;12.47;;;;;;;8.16;52.06;101214.97;6101384;29;20236;-63
2021/01/26 12:21:13;;;;;;;12.23;10.93;;;;;;;8.97;50.73;101219.81;6080968;29;20240;-63
2021/01/26 12:24:35;;;;;;;12.20;10.97;;;;;;;9.90;47.78;101213.06;6082014;29;20259;-62
2021/01/26 12:27:55;;;;;;;13.13;11.40;;;;;;;9.91;47.49;101207.88;6085599;29;20233;-63
2021/01/26 12:31:16;;;;;;;12.93;11.13;;;;;;;11.97;42.61;101196.59;6086008;29;20583;-63
2021/01/26 12:34:36;;;;;;;11.97;10.77;;;;;;;10.97;45.43;101206.78;6072328;29;20259;-63
2021/01/26 12:37:57;;;;;;;13.53;10.07;;;;;;;11.80;42.56;101195.81;6078701;29;20272;-63
2021/01/26 12:41:18;;;;;;;11.10;10.00;;;;;;;12.21;41.56;101194.63;6086528;29;20355;-64
2021/01/26 12:44:39;;;;;;;12.30;11.00;;;;;;;11.94;41.92;101204.47;6087548;29;20244;-63
2021/01/26 12:48:00;;;;;;;14.90;10.67;;;;;;;12.99;39.91;101203.34;6091571;29;20527;-63
2021/01/26 12:51:21;;;;;;;11.57;10.40;;;;;;;11.97;42.37;101204.41;6093828;29;20236;-64
2021/01/26 12:54:41;;;;;;;10.50;9.33;;;;;;;10.20;46.53;101218.25;6093294;29;20232;-63
2021/01/26 12:58:03;;;;;;;11.27;10.27;;;;;;;9.63;48.30;101215.66;6078869;29;20248;-63
2021/01/26 13:01:24;;;;;;;10.90;9.73;;;;;;;9.31;49.68;101206.94;6088629;29;20245;-63
2021/01/26 13:04:44;;;;;;;12.73;11.53;;;;;;;9.15;49.85;101209.50;6074966;29;20260;-63
2021/01/26 13:08:05;;;;;;;13.77;12.37;;;;;;;9.04;50.40;101216.38;6089878;29;20319;-63
2021/01/26 13:11:25;;;;;;;12.13;9.50;;;;;;;9.17;49.83;101207.75;6087690;29;20893;-64
2021/01/26 13:14:47;;;;;;;8.10;7.30;;;;;;;10.39;47.09;101195.69;6088561;29;20236;-63
2021/01/26 13:18:07;;;;;;;12.77;8.37;;;;;;;11.42;43.15;101204.81;6091630;29;20232;-63
2021/01/26 13:21:27;;;;;;;7.47;6.67;;;;;;;10.70;45.74;101203.44;6091648;29;20232;-62
2021/01/26 13:24:48;;;;;;;9.27;6.73;;;;;;;9.70;47.64;101206.13;6097072;29;20241;-63
2021/01/26 13:28:08;;;;;;;8.20;7.40;;;;;;;9.59;48.86;101220.84;6095840;29;20232;-63
2021/01/26 13:31:29;;;;;;;5.43;4.93;;;;;;;8.04;52.42;101216.63;6085998;29;20236;-62
2021/01/26 13:34:50;;;;;;;3.47;2.50;;;;;;;7.61;54.19;101229.22;6084828;29;20240;-64
2021/01/26 13:38:11;;;;;;;3.93;2.03;;;;;;;7.37;56.29;101222.09;6089676;29;20315;-63
2021/01/26 13:41:32;;;;;;;2.20;1.80;;;;;;;6.91;58.14;101237.06;6082324;29;20245;-62
2021/01/26 13:44:52;;;;;;;3.33;2.77;;;;;;;7.29;57.96;101240.13;6090791;29;20529;-62
2021/01/26 13:48:13;;;;;;;2.93;2.13;;;;;;;7.08;58.85;101251.09;6087866;29;20228;-63
2021/01/26 13:51:35;;;;;;;4.00;2.07;;;;;;;6.52;60.87;101258.13;6085854;29;20537;-62
2021/01/26 13:54:55;;;;;;;2.50;1.17;;;;;;;6.05;62.02;101278.09;6088926;29;20228;-60
2021/01/26 13:58:15;;;;;;;1.93;0.80;;;;;;;5.86;62.63;101251.00;6090345;29;20248;-62
2021/01/26 14:01:36;;;;;;;2.50;0.90;;;;;;;6.23;61.15;101246.47;6087757;29;20347;-61
2021/01/26 14:04:57;;;;;;;2.20;1.00;;;;;;;6.30;60.67;101247.44;6089424;29;20610;-62
2021/01/26 14:08:19;;;;;;;3.07;1.80;;;;;;;6.94;58.71;101254.38;6092705;29;20236;-62
2021/01/26 14:11:40;;;;;;;2.50;1.00;;;;;;;6.94;59.08;101251.78;6087674;29;20236;-63
2021/01/26 14:15:01;;;;;;;5.03;0.90;;;;;;;6.81;59.57;101249.03;6080761;29;20445;-62
2021/01/26 14:18:21;;;;;;;1.70;1.10;;;;;;;6.69;59.47;101251.47;6091200;29;20224;-63
2021/01/26 14:21:42;;;;;;;2.87;1.17;;;;;;;6.66;60.01;101251.41;6086331;29;20584;-62
2021/01/26 14:25:04;;;;;;;7.37;2.07;;;;;;;6.66;59.91;101256.59;6091657;28;20236;-63
2021/01/26 14:28:24;;;;;;;3.00;1.43;;;;;;;6.36;61.16;101267.34;6088430;29;20236;-63
2021/01/26 14:31:44;;;;;;;2.57;1.87;;;;;;;6.41;61.34;101266.56;6088573;29;20469;-63
2021/01/26 14:35:07;;;;;;;4.87;1.37;;;;;;;6.27;61.68;101273.25;6088750;29;20229;-63
2021/01/26 14:38:28;;;;;;;3.77;1.70;;;;;;;6.19;61.95;101264.53;6091008;29;20236;-62
2021/01/26 14:41:48;;;;;;;2.50;1.30;;;;;;;6.04;62.42;101286.69;6091803;29;20324;-63
2021/01/26 14:45:09;;;;;;;3.27;1.50;;;;;;;6.11;62.37;101298.00;6091359;29;20232;-63
2021/01/26 14:48:30;;;;;;;1.83;1.60;;;;;;;6.09;62.44;101294.53;6090230;29;20260;-63
2021/01/26 14:51:50;;;;;;;6.70;1.70;;;;;;;6.11;62.24;101303.19;6087278;29;21160;-63
2021/01/26 14:55:13;;;;;;;2.30;1.47;;;;;;;5.98;63.09;101315.00;6091970;29;20671;-61
2021/01/26 14:58:34;;;;;;;4.33;1.70;;;;;;;5.87;63.41;101313.91;6091170;29;20240;-61
2021/01/26 15:01:54;;;;;;;3.83;1.57;;;;;;;6.29;62.28;101310.38;6090182;29;20237;-63
2021/01/26 15:05:15;;;;;;;5.00;1.97;;;;;;;6.40;61.64;101315.72;6091590;29;20268;-61
2021/01/26 15:08:36;;;;;;;5.93;2.47;;;;;;;6.20;62.20;101323.16;6090587;29;20220;-63
2021/01/26 15:11:57;;;;;;;4.43;3.27;;;;;;;6.00;62.95;101321.09;6090942;29;20310;-61
2021/01/26 15:15:20;;;;;;;4.63;1.67;;;;;;;5.90;63.21;101330.34;6091114;29;20236;-61
2021/01/26 15:18:41;;;;;;;5.27;1.60;;;;;;;5.92;62.39;101333.84;6091604;29;20224;-62
2021/01/26 15:22:02;;;;;;;3.57;1.40;;;;;;;5.78;63.52;101339.59;6082466;29;20626;-61
2021/01/26 15:25:22;;;;;;;5.57;1.90;;;;;;;5.74;63.15;101346.44;6091135;29;20240;-62
2021/01/26 15:28:45;;;;;;;6.23;2.83;;;;;;;5.97;62.71;101336.56;6090665;29;20229;-62
2021/01/26 15:32:05;;;;;;;6.60;2.27;;;;;;;5.80;62.76;101348.28;6089513;29;20625;-62
2021/01/26 15:35:26;;;;;;;2.53;2.00;;;;;;;5.92;62.54;101358.81;6091777;29;20225;-62
2021/01/26 15:38:47;;;;;;;3.93;2.00;;;;;;;5.82;62.46;101362.97;6091888;29;20236;-62
2021/01/26 15:42:07;;;;;;;4.23;1.80;;;;;;;5.57;63.32;101359.00;6092379;29;20377;-61
2021/01/26 15:45:29;;;;;;;3.97;1.63;;;;;;;5.53;63.45;101368.41;6086567;29;20244;-62
2021/01/26 15:48:49;;;;;;;2.67;1.23;;;;;;;5.59;63.13;101369.38;6090697;29;20229;-62